Terminal Aerodrome Forecast
Issued by NWS Albany, NY

Home | Current Version | Previous Version | Text Only | Print | Product List | Glossary On
Versions: 1 2 3 4 5 6 7 8 9 10 11 12 13 14 15 16 17 18 19 20
000
FTUS41 KALY 291721
TAFALB
TAF
KALB 291721Z 2918/3018 22006KT P6SM FEW060 SCT250
     FM300100 18003KT P6SM FEW250
     FM300900 17006KT P6SM SCT015 BKN200
     FM301600 18009KT P6SM VCSH BKN050 OVC080=

USA.gov is the U.S. government's official web portal to all federal, state and local government web resources and services.